Time;durP1;ratioP1;P1;durP2;ratioP2;P2;SDS_P1;SDS_P2;PMS_P1;PMS_P2;Temp;Humidity;BMP_temperature;BMP_pressure;BME280_temperature;BME280_humidity;BME280_pressure;Samples;Min_cycle;Max_cycle;Signal;HPM_P1;HPM_P2
2023/12/14 00:01:28;;;;;;;10.98;7.95;;;;;;;;;;4974767;28;20055;-76
2023/12/14 00:03:54;;;;;;;12.40;8.70;;;;;;;;;;4974432;28;20112;-76
2023/12/14 00:06:20;;;;;;;10.50;7.88;;;;;;;;;;4964887;28;20059;-76
2023/12/14 00:08:46;;;;;;;10.65;7.60;;;;;;;;;;4974222;28;20413;-76
2023/12/14 00:11:12;;;;;;;11.68;7.43;;;;;;;;;;4974253;28;20047;-76
2023/12/14 00:13:38;;;;;;;10.55;7.65;;;;;;;;;;4974966;28;20051;-76
2023/12/14 00:16:04;;;;;;;13.35;8.88;;;;;;;;;;4973263;28;20089;-76
2023/12/14 00:18:31;;;;;;;10.52;8.18;;;;;;;;;;4974715;28;20077;-75
2023/12/14 00:20:57;;;;;;;13.05;8.50;;;;;;;;;;4973131;28;20054;-76
2023/12/14 00:23:23;;;;;;;12.82;8.70;;;;;;;;;;4973274;28;20047;-76
2023/12/14 00:25:49;;;;;;;11.13;8.00;;;;;;;;;;4973993;28;20070;-76
2023/12/14 00:28:15;;;;;;;11.38;8.52;;;;;;;;;;4974776;28;20130;-76
2023/12/14 00:30:42;;;;;;;11.52;8.68;;;;;;;;;;4972270;28;20552;-76
2023/12/14 00:33:08;;;;;;;11.23;8.32;;;;;;;;;;4962175;28;20074;-76
2023/12/14 00:35:34;;;;;;;12.80;7.85;;;;;;;;;;4974009;28;20039;-76
2023/12/14 00:38:00;;;;;;;10.43;8.43;;;;;;;;;;4972775;28;20054;-76
2023/12/14 00:40:26;;;;;;;11.50;7.78;;;;;;;;;;4974281;28;20061;-76
2023/12/14 00:42:52;;;;;;;13.02;8.20;;;;;;;;;;4974529;28;20050;-76
2023/12/14 00:45:18;;;;;;;10.95;7.93;;;;;;;;;;4974763;28;20051;-76
2023/12/14 00:47:44;;;;;;;11.45;7.90;;;;;;;;;;4974392;28;20051;-76
2023/12/14 00:50:10;;;;;;;14.68;7.45;;;;;;;;;;4973727;28;20075;-76
2023/12/14 00:52:36;;;;;;;12.05;7.93;;;;;;;;;;4974580;28;20038;-76
2023/12/14 00:55:02;;;;;;;10.85;7.63;;;;;;;;;;4973096;28;20046;-76
2023/12/14 00:57:28;;;;;;;12.35;7.65;;;;;;;;;;4972894;28;20047;-76
2023/12/14 00:59:54;;;;;;;12.15;8.20;;;;;;;;;;4973914;28;20057;-76
2023/12/14 01:02:20;;;;;;;10.82;7.55;;;;;;;;;;4972910;28;20063;-76
2023/12/14 01:04:46;;;;;;;11.40;7.88;;;;;;;;;;4973389;28;20092;-76
2023/12/14 01:07:12;;;;;;;12.10;8.18;;;;;;;;;;4971813;28;20050;-76
2023/12/14 01:09:38;;;;;;;10.35;7.53;;;;;;;;;;4973513;28;20054;-76
2023/12/14 01:12:05;;;;;;;10.10;7.43;;;;;;;;;;4973318;28;20043;-75
2023/12/14 01:14:31;;;;;;;9.75;6.70;;;;;;;;;;4973203;28;20043;-76
2023/12/14 01:16:57;;;;;;;11.55;7.50;;;;;;;;;;4973880;28;20058;-76
2023/12/14 01:19:25;;;;;;;10.02;7.65;;;;;;;;;;4973182;28;20074;-76
2023/12/14 01:21:51;;;;;;;11.07;7.15;;;;;;;;;;4960221;28;20093;-75
2023/12/14 01:24:17;;;;;;;11.57;7.25;;;;;;;;;;4973476;28;20053;-75
2023/12/14 01:26:43;;;;;;;11.95;7.93;;;;;;;;;;4966563;28;20050;-75
2023/12/14 01:29:09;;;;;;;12.38;7.50;;;;;;;;;;4966615;28;20055;-75
2023/12/14 01:31:35;;;;;;;10.73;7.20;;;;;;;;;;4971427;28;20065;-76
2023/12/14 01:34:01;;;;;;;11.10;7.90;;;;;;;;;;4969503;28;20050;-75
2023/12/14 01:36:27;;;;;;;15.13;9.05;;;;;;;;;;4977351;28;20114;-76
2023/12/14 01:38:53;;;;;;;12.00;7.32;;;;;;;;;;4973718;28;20496;-75
2023/12/14 01:41:19;;;;;;;10.73;7.85;;;;;;;;;;4975200;28;20050;-76
2023/12/14 01:43:48;;;;;;;15.75;8.50;;;;;;;;;;4978173;28;20458;-75
2023/12/14 01:46:16;;;;;;;12.45;8.35;;;;;;;;;;4978235;28;20074;-76
2023/12/14 01:48:42;;;;;;;14.40;8.57;;;;;;;;;;4975346;28;20051;-76
2023/12/14 01:51:08;;;;;;;15.38;8.70;;;;;;;;;;4977702;28;20054;-76
2023/12/14 01:53:34;;;;;;;12.38;8.60;;;;;;;;;;4977728;28;20057;-76
2023/12/14 01:56:00;;;;;;;14.98;8.82;;;;;;;;;;4976232;28;20043;-76
2023/12/14 01:58:26;;;;;;;13.50;8.15;;;;;;;;;;4992098;28;20397;-76
2023/12/14 02:00:52;;;;;;;12.57;8.63;;;;;;;;;;4975765;28;20094;-76
2023/12/14 02:03:19;;;;;;;14.15;7.65;;;;;;;;;;4977744;28;20065;-75
2023/12/14 02:05:45;;;;;;;12.85;8.68;;;;;;;;;;4977229;28;20056;-76
2023/12/14 02:08:11;;;;;;;10.25;7.13;;;;;;;;;;4974566;28;20094;-75
2023/12/14 02:10:37;;;;;;;11.27;7.03;;;;;;;;;;4977388;28;20089;-76
2023/12/14 02:13:03;;;;;;;13.25;8.73;;;;;;;;;;4977373;28;20042;-76
2023/12/14 02:15:29;;;;;;;14.27;7.75;;;;;;;;;;4977364;28;20066;-76
2023/12/14 02:17:55;;;;;;;11.55;8.00;;;;;;;;;;4976923;28;20141;-75
2023/12/14 02:20:21;;;;;;;14.75;8.07;;;;;;;;;;4977321;28;20038;-76
2023/12/14 02:22:50;;;;;;;11.70;7.88;;;;;;;;;;4976663;28;20450;-75
2023/12/14 02:25:17;;;;;;;11.88;7.63;;;;;;;;;;4977155;28;20039;-76
2023/12/14 02:27:43;;;;;;;11.25;7.78;;;;;;;;;;4971310;28;20086;-75
2023/12/14 02:30:09;;;;;;;10.63;6.95;;;;;;;;;;4974499;28;20390;-76
2023/12/14 02:32:35;;;;;;;10.98;7.13;;;;;;;;;;4974931;28;20050;-76
2023/12/14 02:35:02;;;;;;;11.60;7.43;;;;;;;;;;4975983;28;20043;-75
2023/12/14 02:37:28;;;;;;;11.90;7.47;;;;;;;;;;4974746;28;20039;-76
2023/12/14 02:39:54;;;;;;;11.77;6.97;;;;;;;;;;4972671;28;20086;-76
2023/12/14 02:42:20;;;;;;;12.18;7.70;;;;;;;;;;4975122;28;20057;-76
2023/12/14 02:44:47;;;;;;;12.82;7.35;;;;;;;;;;4975967;28;20051;-76
2023/12/14 02:47:13;;;;;;;12.95;8.20;;;;;;;;;;4966788;28;20059;-75
2023/12/14 02:49:39;;;;;;;11.75;7.03;;;;;;;;;;4957832;28;20044;-76
2023/12/14 02:52:05;;;;;;;12.25;7.25;;;;;;;;;;4977020;28;20043;-76
2023/12/14 02:54:31;;;;;;;12.32;7.40;;;;;;;;;;4954738;28;20083;-75
2023/12/14 02:56:57;;;;;;;10.70;7.00;;;;;;;;;;4976031;28;20046;-76
2023/12/14 02:59:23;;;;;;;12.77;7.97;;;;;;;;;;4965489;28;20051;-76
2023/12/14 03:01:49;;;;;;;13.73;7.75;;;;;;;;;;4970308;28;20121;-76
2023/12/14 03:04:15;;;;;;;13.10;6.95;;;;;;;;;;4964020;28;20122;-76
2023/12/14 03:06:41;;;;;;;12.63;7.35;;;;;;;;;;4973874;28;20049;-76
2023/12/14 03:09:07;;;;;;;12.20;6.72;;;;;;;;;;4976174;28;20043;-76
2023/12/14 03:11:34;;;;;;;12.93;7.43;;;;;;;;;;4966793;28;20523;-76
2023/12/14 03:14:00;;;;;;;13.77;7.53;;;;;;;;;;4974720;28;20467;-75
2023/12/14 03:16:26;;;;;;;13.55;7.80;;;;;;;;;;4957803;28;20504;-76
2023/12/14 03:18:53;;;;;;;12.52;7.35;;;;;;;;;;4964086;28;20413;-75
2023/12/14 03:21:19;;;;;;;14.45;7.75;;;;;;;;;;4967147;28;20497;-75
2023/12/14 03:23:45;;;;;;;12.93;7.03;;;;;;;;;;4965478;28;20141;-75
2023/12/14 03:26:11;;;;;;;11.43;6.55;;;;;;;;;;4967673;28;20102;-76
2023/12/14 03:28:38;;;;;;;14.82;7.45;;;;;;;;;;4971445;28;20043;-75
2023/12/14 03:31:04;;;;;;;12.48;7.55;;;;;;;;;;4974568;28;20055;-75
2023/12/14 03:33:30;;;;;;;13.73;7.75;;;;;;;;;;4975361;28;20089;-75
2023/12/14 03:35:56;;;;;;;12.98;7.72;;;;;;;;;;4974465;28;20046;-76
2023/12/14 03:38:22;;;;;;;12.50;6.97;;;;;;;;;;4963082;28;20573;-75
2023/12/14 03:40:48;;;;;;;12.93;7.55;;;;;;;;;;4975156;28;20062;-75
2023/12/14 03:43:14;;;;;;;13.95;8.07;;;;;;;;;;4974633;28;20058;-75
2023/12/14 03:45:41;;;;;;;17.70;8.77;;;;;;;;;;4971667;28;20049;-76
2023/12/14 03:48:07;;;;;;;15.85;8.73;;;;;;;;;;4975137;28;20050;-75
2023/12/14 03:50:33;;;;;;;18.55;9.68;;;;;;;;;;4974978;28;20042;-76
2023/12/14 03:52:59;;;;;;;20.65;10.30;;;;;;;;;;4963138;28;20051;-76
2023/12/14 03:55:25;;;;;;;16.38;10.00;;;;;;;;;;4975399;28;20043;-75
2023/12/14 03:57:52;;;;;;;19.70;10.15;;;;;;;;;;4974407;28;20039;-75
2023/12/14 04:00:18;;;;;;;17.17;10.10;;;;;;;;;;4975335;28;20051;-76
2023/12/14 04:02:44;;;;;;;18.90;10.48;;;;;;;;;;4974514;28;20070;-76
2023/12/14 04:05:10;;;;;;;16.05;9.73;;;;;;;;;;4973861;28;20057;-75
2023/12/14 04:07:40;;;;;;;14.43;9.63;;;;;;;;;;4970306;28;20046;-75
2023/12/14 04:10:12;;;;;;;14.93;9.38;;;;;;;;;;4969784;28;20054;-75
2023/12/14 04:12:39;;;;;;;15.77;10.07;;;;;;;;;;4975225;28;20049;-75
2023/12/14 04:15:06;;;;;;;18.25;9.65;;;;;;;;;;4966922;28;20050;-75
2023/12/14 04:17:32;;;;;;;14.57;9.65;;;;;;;;;;4974838;28;20050;-76
2023/12/14 04:19:59;;;;;;;14.30;8.88;;;;;;;;;;4967462;28;20051;-76
2023/12/14 04:22:25;;;;;;;15.32;10.27;;;;;;;;;;4971607;28;20409;-75
2023/12/14 04:24:51;;;;;;;18.88;9.55;;;;;;;;;;4971424;28;20042;-76
2023/12/14 04:27:17;;;;;;;20.70;10.35;;;;;;;;;;4970794;28;20043;-76
2023/12/14 04:29:43;;;;;;;20.48;10.45;;;;;;;;;;4964318;28;20047;-76
2023/12/14 04:32:10;;;;;;;16.83;10.27;;;;;;;;;;4973199;28;20055;-76
2023/12/14 04:34:36;;;;;;;17.80;10.75;;;;;;;;;;4973504;28;20485;-76
2023/12/14 04:37:02;;;;;;;15.52;9.82;;;;;;;;;;4973355;28;20043;-76
2023/12/14 04:39:29;;;;;;;14.48;9.52;;;;;;;;;;4974408;28;20096;-75
2023/12/14 04:41:55;;;;;;;12.82;9.27;;;;;;;;;;4973274;28;20065;-76
2023/12/14 04:44:21;;;;;;;15.27;9.95;;;;;;;;;;4973509;28;20043;-75
2023/12/14 04:46:48;;;;;;;14.48;9.27;;;;;;;;;;4973321;28;20047;-75
2023/12/14 04:49:14;;;;;;;14.98;10.07;;;;;;;;;;4971387;28;20050;-76
2023/12/14 04:51:40;;;;;;;15.52;9.18;;;;;;;;;;4956296;28;20051;-75
2023/12/14 04:54:06;;;;;;;12.60;9.10;;;;;;;;;;4957761;28;20047;-76
2023/12/14 04:56:32;;;;;;;12.77;8.95;;;;;;;;;;4957080;28;20066;-76
2023/12/14 04:58:58;;;;;;;15.23;9.73;;;;;;;;;;4962279;28;20043;-76
2023/12/14 05:01:26;;;;;;;17.23;9.00;;;;;;;;;;4967803;28;20089;-75
2023/12/14 05:03:52;;;;;;;15.82;9.80;;;;;;;;;;4968981;28;20062;-76
2023/12/14 05:06:19;;;;;;;12.95;9.32;;;;;;;;;;4974220;28;20452;-76
2023/12/14 05:08:45;;;;;;;15.23;9.82;;;;;;;;;;4970709;28;20054;-76
2023/12/14 05:11:13;;;;;;;15.73;9.52;;;;;;;;;;4978930;28;20055;-76
2023/12/14 05:13:39;;;;;;;15.32;9.73;;;;;;;;;;4961482;28;20045;-76
2023/12/14 05:16:05;;;;;;;15.52;9.73;;;;;;;;;;4973749;28;20043;-76
2023/12/14 05:18:31;;;;;;;18.17;10.02;;;;;;;;;;4973521;28;20412;-76
2023/12/14 05:20:57;;;;;;;14.95;9.82;;;;;;;;;;4973499;28;20519;-76
2023/12/14 05:23:23;;;;;;;17.33;9.35;;;;;;;;;;4972912;28;20042;-75
2023/12/14 05:25:50;;;;;;;18.35;9.82;;;;;;;;;;4973723;28;20046;-76
2023/12/14 05:28:16;;;;;;;18.60;9.85;;;;;;;;;;4966712;28;20047;-75
2023/12/14 05:30:42;;;;;;;19.90;10.57;;;;;;;;;;4961774;28;20042;-76
2023/12/14 05:33:08;;;;;;;16.60;9.52;;;;;;;;;;4973349;28;20050;-76
2023/12/14 05:35:34;;;;;;;14.15;9.27;;;;;;;;;;4972098;28;20051;-76
2023/12/14 05:38:01;;;;;;;17.45;10.05;;;;;;;;;;4967338;28;20050;-76
2023/12/14 05:40:27;;;;;;;15.25;9.52;;;;;;;;;;4968266;28;20042;-75
2023/12/14 05:42:53;;;;;;;16.55;9.52;;;;;;;;;;4971061;28;20051;-76
2023/12/14 05:45:19;;;;;;;14.43;9.63;;;;;;;;;;4966125;28;20508;-76
2023/12/14 05:47:45;;;;;;;16.00;9.48;;;;;;;;;;4965016;28;20413;-76
2023/12/14 05:50:12;;;;;;;14.57;9.40;;;;;;;;;;4972906;28;20039;-76
2023/12/14 05:52:40;;;;;;;17.23;10.00;;;;;;;;;;4973548;28;20045;-76
2023/12/14 05:55:08;;;;;;;15.90;9.75;;;;;;;;;;4972636;28;20059;-76
2023/12/14 05:57:34;;;;;;;13.52;9.70;;;;;;;;;;4967031;28;20043;-76
2023/12/14 06:00:00;;;;;;;17.17;10.82;;;;;;;;;;4971573;28;20043;-76
2023/12/14 06:02:26;;;;;;;15.23;10.73;;;;;;;;;;4963337;28;20087;-76
2023/12/14 06:04:52;;;;;;;18.20;10.30;;;;;;;;;;4973596;28;20054;-76
2023/12/14 06:07:18;;;;;;;16.95;9.80;;;;;;;;;;4972478;28;20499;-76
2023/12/14 06:09:45;;;;;;;16.52;9.85;;;;;;;;;;4973003;28;20468;-76
2023/12/14 06:12:11;;;;;;;17.60;9.73;;;;;;;;;;4951780;28;20378;-75
2023/12/14 06:14:37;;;;;;;17.30;10.32;;;;;;;;;;4966791;28;20047;-75
2023/12/14 06:17:03;;;;;;;16.83;10.65;;;;;;;;;;4971043;28;20440;-76
2023/12/14 06:19:29;;;;;;;17.15;10.02;;;;;;;;;;4973327;28;20731;-76
2023/12/14 06:21:55;;;;;;;14.57;10.18;;;;;;;;;;4968451;28;20043;-76
2023/12/14 06:24:22;;;;;;;16.98;10.93;;;;;;;;;;4974808;28;20050;-76
2023/12/14 06:26:48;;;;;;;15.68;9.55;;;;;;;;;;4977253;28;20058;-76
2023/12/14 06:29:14;;;;;;;14.68;9.70;;;;;;;;;;4975672;28;20047;-75
2023/12/14 06:31:40;;;;;;;18.85;10.98;;;;;;;;;;4976070;28;20050;-76
2023/12/14 06:34:06;;;;;;;16.17;10.75;;;;;;;;;;4976521;28;20051;-76
2023/12/14 06:36:34;;;;;;;14.25;9.43;;;;;;;;;;4975807;28;20042;-76
2023/12/14 06:39:00;;;;;;;16.20;9.85;;;;;;;;;;4962526;28;20090;-76
2023/12/14 06:41:27;;;;;;;15.57;9.93;;;;;;;;;;4972506;28;20047;-76
2023/12/14 06:43:53;;;;;;;13.35;9.82;;;;;;;;;;4975355;28;20054;-76
2023/12/14 06:46:20;;;;;;;15.95;10.65;;;;;;;;;;4976561;28;20098;-76
2023/12/14 06:48:46;;;;;;;15.32;9.85;;;;;;;;;;4975372;28;20043;-76
2023/12/14 06:51:12;;;;;;;16.25;10.18;;;;;;;;;;4974144;28;20053;-76
2023/12/14 06:53:42;;;;;;;15.75;9.70;;;;;;;;;;4960985;28;20043;-76
2023/12/14 06:56:12;;;;;;;15.30;10.23;;;;;;;;;;4977321;28;20101;-76
2023/12/14 06:58:39;;;;;;;18.33;10.75;;;;;;;;;;4975893;28;20487;-76
2023/12/14 07:01:05;;;;;;;19.65;10.38;;;;;;;;;;4975747;28;20078;-76
2023/12/14 07:03:31;;;;;;;20.20;12.07;;;;;;;;;;4963879;28;20397;-75
2023/12/14 07:05:58;;;;;;;17.33;11.77;;;;;;;;;;4970447;28;20050;-76
2023/12/14 07:08:24;;;;;;;19.10;12.07;;;;;;;;;;4975590;28;20073;-76
2023/12/14 07:10:50;;;;;;;16.13;11.25;;;;;;;;;;4975855;28;20046;-76
2023/12/14 07:13:16;;;;;;;19.13;11.32;;;;;;;;;;4974685;28;20047;-76
2023/12/14 07:15:42;;;;;;;17.33;11.00;;;;;;;;;;4967395;28;20079;-76
2023/12/14 07:18:08;;;;;;;16.65;11.38;;;;;;;;;;4963176;28;20445;-75
2023/12/14 07:20:34;;;;;;;19.13;11.05;;;;;;;;;;4975743;28;20065;-76
2023/12/14 07:23:01;;;;;;;14.95;10.57;;;;;;;;;;4974830;28;20081;-76
2023/12/14 07:25:27;;;;;;;17.58;11.13;;;;;;;;;;4976722;28;20047;-76
2023/12/14 07:27:53;;;;;;;17.70;11.50;;;;;;;;;;4970964;28;20038;-75
2023/12/14 07:30:19;;;;;;;19.90;12.55;;;;;;;;;;4970628;28;20050;-76
2023/12/14 07:32:45;;;;;;;18.23;12.05;;;;;;;;;;4966358;28;20473;-76
2023/12/14 07:35:12;;;;;;;19.63;12.43;;;;;;;;;;4969609;28;20046;-76
2023/12/14 07:37:38;;;;;;;18.52;11.23;;;;;;;;;;4968224;28;20039;-76
2023/12/14 07:40:04;;;;;;;18.70;11.65;;;;;;;;;;4975365;28;20046;-76
2023/12/14 07:42:31;;;;;;;17.75;12.38;;;;;;;;;;4972258;28;20045;-76
2023/12/14 07:44:57;;;;;;;18.88;12.07;;;;;;;;;;4974200;28;20043;-76
2023/12/14 07:47:23;;;;;;;19.25;12.85;;;;;;;;;;4970076;28;20047;-76
2023/12/14 07:49:49;;;;;;;15.98;12.05;;;;;;;;;;4973847;28;20493;-76
2023/12/14 07:52:15;;;;;;;17.90;12.68;;;;;;;;;;4965726;28;20499;-76
2023/12/14 07:54:42;;;;;;;18.23;12.38;;;;;;;;;;4966389;28;20512;-76
2023/12/14 07:57:08;;;;;;;19.27;12.45;;;;;;;;;;4964077;28;20043;-76
2023/12/14 07:59:34;;;;;;;21.65;12.85;;;;;;;;;;4965908;28;20055;-76
2023/12/14 08:02:00;;;;;;;20.90;13.18;;;;;;;;;;4967279;28;20295;-76
2023/12/14 08:04:26;;;;;;;24.33;13.35;;;;;;;;;;4962977;28;20051;-76
2023/12/14 08:06:52;;;;;;;18.92;13.75;;;;;;;;;;4973078;28;20117;-76
2023/12/14 08:09:18;;;;;;;21.67;13.65;;;;;;;;;;4966413;28;20036;-76
2023/12/14 08:11:44;;;;;;;21.05;13.50;;;;;;;;;;4965502;28;20435;-76
2023/12/14 08:14:11;;;;;;;20.48;13.30;;;;;;;;;;4965131;28;20047;-76
2023/12/14 08:16:37;;;;;;;21.65;14.35;;;;;;;;;;4971536;28;20042;-76
2023/12/14 08:19:03;;;;;;;21.55;13.38;;;;;;;;;;4972507;28;20138;-76
2023/12/14 08:21:30;;;;;;;20.25;12.80;;;;;;;;;;4975086;28;20039;-76
2023/12/14 08:23:56;;;;;;;21.48;12.73;;;;;;;;;;4972418;28;20055;-75
2023/12/14 08:26:23;;;;;;;23.77;13.02;;;;;;;;;;4958173;28;20051;-76
2023/12/14 08:28:49;;;;;;;21.10;13.07;;;;;;;;;;4974709;28;20077;-75
2023/12/14 08:31:15;;;;;;;21.73;13.02;;;;;;;;;;4975313;28;20047;-76
2023/12/14 08:33:42;;;;;;;24.20;14.07;;;;;;;;;;4975477;28;20050;-76
2023/12/14 08:36:08;;;;;;;23.17;13.38;;;;;;;;;;4975441;28;20046;-76
2023/12/14 08:38:34;;;;;;;30.63;14.65;;;;;;;;;;4973707;28;20105;-76
2023/12/14 08:41:00;;;;;;;26.83;15.25;;;;;;;;;;4974258;28;20055;-76
2023/12/14 08:43:27;;;;;;;26.70;14.48;;;;;;;;;;4974040;28;20043;-76
2023/12/14 08:45:53;;;;;;;29.60;14.75;;;;;;;;;;4975005;28;20058;-75
2023/12/14 08:48:19;;;;;;;27.67;15.18;;;;;;;;;;4975166;28;20481;-76
2023/12/14 08:50:45;;;;;;;28.70;14.80;;;;;;;;;;4974900;28;20050;-75
2023/12/14 08:53:11;;;;;;;26.63;15.60;;;;;;;;;;4975033;28;20042;-76
2023/12/14 08:55:37;;;;;;;28.50;15.55;;;;;;;;;;4967468;28;20047;-76
2023/12/14 08:58:04;;;;;;;31.77;16.17;;;;;;;;;;4962004;28;20042;-76
2023/12/14 09:00:30;;;;;;;26.77;15.82;;;;;;;;;;4973507;28;20072;-76
2023/12/14 09:02:56;;;;;;;30.55;16.20;;;;;;;;;;4972304;28;20497;-76
2023/12/14 09:05:22;;;;;;;27.20;15.05;;;;;;;;;;4964928;28;20105;-75
2023/12/14 09:07:48;;;;;;;27.63;15.85;;;;;;;;;;4968181;28;20050;-76
2023/12/14 09:10:14;;;;;;;30.50;16.40;;;;;;;;;;4966148;28;20547;-76
2023/12/14 09:12:40;;;;;;;31.50;16.42;;;;;;;;;;4971838;28;20542;-76
2023/12/14 09:15:06;;;;;;;30.05;16.15;;;;;;;;;;4972330;28;20127;-76
2023/12/14 09:17:33;;;;;;;30.77;16.15;;;;;;;;;;4972070;28;20404;-76
2023/12/14 09:20:04;;;;;;;31.23;16.15;;;;;;;;;;4973154;28;20051;-76
2023/12/14 09:22:30;;;;;;;26.10;16.05;;;;;;;;;;4973544;28;20057;-76
2023/12/14 09:24:56;;;;;;;28.52;16.75;;;;;;;;;;4968387;28;20047;-76
2023/12/14 09:27:22;;;;;;;28.65;16.50;;;;;;;;;;4963035;28;20062;-75
2023/12/14 09:29:49;;;;;;;30.92;15.70;;;;;;;;;;4972251;28;20046;-76
2023/12/14 09:32:17;;;;;;;30.38;16.13;;;;;;;;;;4972781;28;20094;-75
2023/12/14 09:34:43;;;;;;;27.70;16.30;;;;;;;;;;4974419;28;20497;-76
2023/12/14 09:37:09;;;;;;;29.70;17.35;;;;;;;;;;4973884;28;20457;-76
2023/12/14 09:39:36;;;;;;;31.10;15.63;;;;;;;;;;4972704;28;20366;-76
2023/12/14 09:42:04;;;;;;;32.38;17.02;;;;;;;;;;4973652;28;20066;-76
2023/12/14 09:44:30;;;;;;;34.55;17.75;;;;;;;;;;4975051;28;20551;-76
2023/12/14 09:46:57;;;;;;;29.40;16.75;;;;;;;;;;4968265;28;20058;-76
2023/12/14 09:49:28;;;;;;;34.92;17.15;;;;;;;;;;4955032;28;20050;-76
2023/12/14 09:51:54;;;;;;;35.42;17.60;;;;;;;;;;4973542;28;20122;-76
2023/12/14 09:54:20;;;;;;;35.40;18.38;;;;;;;;;;4973345;28;20055;-76
2023/12/14 09:56:49;;;;;;;30.80;17.98;;;;;;;;;;4975198;28;20492;-76
2023/12/14 09:59:16;;;;;;;29.05;16.83;;;;;;;;;;4974359;28;20047;-76
2023/12/14 10:01:42;;;;;;;29.88;17.27;;;;;;;;;;4968098;28;20047;-76
2023/12/14 10:04:09;;;;;;;38.17;17.80;;;;;;;;;;4976410;28;20497;-76
2023/12/14 10:06:35;;;;;;;31.10;17.83;;;;;;;;;;4973815;28;20170;-76
2023/12/14 10:09:02;;;;;;;29.63;17.40;;;;;;;;;;4977681;28;20061;-76
2023/12/14 10:11:28;;;;;;;33.60;18.70;;;;;;;;;;4968376;28;20175;-76
2023/12/14 10:13:54;;;;;;;33.67;18.60;;;;;;;;;;4969131;28;20080;-76
2023/12/14 10:16:33;;;;;;;30.38;17.63;;;;;;;;;;4970142;28;20070;-76
2023/12/14 10:19:00;;;;;;;28.95;17.92;;;;;;;;;;4968336;28;20046;-76
2023/12/14 10:21:27;;;;;;;32.92;18.38;;;;;;;;;;4976852;28;20442;-76
2023/12/14 10:23:55;;;;;;;29.38;17.83;;;;;;;;;;4973228;28;20050;-76
2023/12/14 10:26:23;;;;;;;33.03;18.73;;;;;;;;;;4977156;28;20075;-76
2023/12/14 10:28:51;;;;;;;32.30;18.58;;;;;;;;;;4977924;28;20502;-76
2023/12/14 10:31:22;;;;;;;30.25;18.45;;;;;;;;;;4976584;28;20126;-76
2023/12/14 10:33:48;;;;;;;36.17;18.58;;;;;;;;;;4976804;28;20076;-76
2023/12/14 10:36:15;;;;;;;29.08;18.13;;;;;;;;;;4977987;28;20043;-76
2023/12/14 10:38:44;;;;;;;31.77;18.50;;;;;;;;;;4976289;28;20058;-76
2023/12/14 10:41:12;;;;;;;27.17;17.80;;;;;;;;;;4976074;28;20055;-76
2023/12/14 10:43:38;;;;;;;32.05;18.55;;;;;;;;;;4976084;28;20050;-76
2023/12/14 10:46:08;;;;;;;35.20;18.92;;;;;;;;;;4975242;28;20055;-76
2023/12/14 10:48:36;;;;;;;31.00;18.10;;;;;;;;;;4976258;28;20055;-76
2023/12/14 10:51:03;;;;;;;29.10;19.23;;;;;;;;;;4975708;28;20077;-76
2023/12/14 10:53:29;;;;;;;32.58;19.02;;;;;;;;;;4974766;28;20137;-76
2023/12/14 10:55:58;;;;;;;31.40;17.90;;;;;;;;;;4976183;28;20061;-76
2023/12/14 10:58:25;;;;;;;27.73;19.17;;;;;;;;;;4972753;28;20400;-76
2023/12/14 11:01:03;;;;;;;31.38;18.85;;;;;;;;;;4975033;28;20034;-76
2023/12/14 11:03:36;;;;;;;32.83;18.20;;;;;;;;;;4968837;28;20130;-75
2023/12/14 11:06:04;;;;;;;33.08;18.45;;;;;;;;;;4971228;28;20097;-76
2023/12/14 11:08:30;;;;;;;28.05;18.00;;;;;;;;;;4972108;28;20047;-76
2023/12/14 11:11:10;;;;;;;33.08;19.27;;;;;;;;;;4962017;28;20098;-76
2023/12/14 11:13:38;;;;;;;30.42;18.58;;;;;;;;;;4970963;28;20166;-76
2023/12/14 11:16:04;;;;;;;29.23;18.42;;;;;;;;;;4972292;28;20446;-76
2023/12/14 11:18:31;;;;;;;31.58;17.75;;;;;;;;;;4971745;28;20062;-75
2023/12/14 11:20:59;;;;;;;29.65;17.48;;;;;;;;;;4973271;28;20051;-76
2023/12/14 11:23:25;;;;;;;28.20;17.45;;;;;;;;;;4968821;28;20077;-76
2023/12/14 11:25:57;;;;;;;29.77;17.13;;;;;;;;;;4969782;28;20079;-76
2023/12/14 11:28:23;;;;;;;31.45;18.50;;;;;;;;;;4969631;28;20077;-76
2023/12/14 11:30:49;;;;;;;25.63;16.88;;;;;;;;;;4968861;28;20043;-76
2023/12/14 11:33:17;;;;;;;26.95;17.10;;;;;;;;;;4970184;28;20077;-75
2023/12/14 11:35:43;;;;;;;31.42;18.08;;;;;;;;;;4970245;28;20051;-75
2023/12/14 11:38:15;;;;;;;25.42;16.55;;;;;;;;;;4968268;28;20054;-76
2023/12/14 11:40:42;;;;;;;30.63;16.50;;;;;;;;;;4976298;28;20051;-76
2023/12/14 11:43:09;;;;;;;25.55;16.33;;;;;;;;;;4975235;28;20042;-76
2023/12/14 11:45:36;;;;;;;29.20;16.55;;;;;;;;;;4973921;28;20059;-76
2023/12/14 11:48:05;;;;;;;30.00;16.85;;;;;;;;;;4974571;28;20046;-76
2023/12/14 11:50:31;;;;;;;26.88;16.58;;;;;;;;;;4976054;28;20066;-75
2023/12/14 11:52:57;;;;;;;30.83;16.25;;;;;;;;;;4975437;28;20094;-76
2023/12/14 11:55:23;;;;;;;28.70;17.00;;;;;;;;;;4976107;28;20061;-76
2023/12/14 11:57:50;;;;;;;29.58;17.70;;;;;;;;;;4976288;28;20046;-76
2023/12/14 12:00:17;;;;;;;24.08;15.02;;;;;;;;;;4973050;28;20404;-76
2023/12/14 12:02:43;;;;;;;28.48;16.30;;;;;;;;;;4974085;28;20051;-76
2023/12/14 12:05:18;;;;;;;33.28;17.60;;;;;;;;;;4972984;28;20093;-76
2023/12/14 12:07:44;;;;;;;31.30;19.15;;;;;;;;;;4972927;28;20085;-76
2023/12/14 12:10:10;;;;;;;29.92;17.30;;;;;;;;;;4974643;28;20050;-76
2023/12/14 12:12:37;;;;;;;26.80;15.40;;;;;;;;;;4974510;28;20085;-76
2023/12/14 12:15:04;;;;;;;27.58;15.82;;;;;;;;;;4973786;28;20054;-76
2023/12/14 12:17:37;;;;;;;23.00;14.75;;;;;;;;;;4973707;28;20488;-76
2023/12/14 12:20:05;;;;;;;27.85;15.77;;;;;;;;;;4971023;28;20049;-76
2023/12/14 12:22:31;;;;;;;26.33;15.20;;;;;;;;;;4959460;28;20066;-76
2023/12/14 12:24:58;;;;;;;26.20;15.90;;;;;;;;;;4975723;28;20081;-76
2023/12/14 12:27:24;;;;;;;28.63;14.35;;;;;;;;;;4975448;28;20129;-76
2023/12/14 12:29:53;;;;;;;25.15;14.65;;;;;;;;;;4962998;28;20054;-75
2023/12/14 12:32:19;;;;;;;22.77;14.65;;;;;;;;;;4968934;28;20105;-76
2023/12/14 12:34:45;;;;;;;25.27;14.15;;;;;;;;;;4975156;28;20054;-75
2023/12/14 12:37:11;;;;;;;22.20;14.07;;;;;;;;;;4971009;28;20438;-75
2023/12/14 12:39:38;;;;;;;25.35;14.65;;;;;;;;;;4971905;28;20054;-76
2023/12/14 12:42:05;;;;;;;25.83;14.52;;;;;;;;;;4967096;28;20058;-76
2023/12/14 12:44:31;;;;;;;24.20;14.73;;;;;;;;;;4948125;28;20043;-76
2023/12/14 12:46:58;;;;;;;21.77;13.80;;;;;;;;;;4966682;28;20061;-76
2023/12/14 12:49:24;;;;;;;23.85;15.32;;;;;;;;;;4966160;28;20094;-75
2023/12/14 12:51:50;;;;;;;22.52;14.10;;;;;;;;;;4962581;28;20434;-76
2023/12/14 12:54:16;;;;;;;24.65;13.52;;;;;;;;;;4966028;28;20426;-75
2023/12/14 12:56:43;;;;;;;24.75;14.65;;;;;;;;;;4967761;28;20136;-76
2023/12/14 12:59:09;;;;;;;22.10;13.82;;;;;;;;;;4974517;28;20089;-75
2023/12/14 13:01:35;;;;;;;22.25;13.52;;;;;;;;;;4975016;28;20065;-76
2023/12/14 13:04:01;;;;;;;24.52;15.55;;;;;;;;;;4972264;28;20145;-76
2023/12/14 13:06:28;;;;;;;22.35;14.13;;;;;;;;;;4974085;28;20039;-75
2023/12/14 13:08:54;;;;;;;23.67;13.93;;;;;;;;;;4974461;28;20085;-76
2023/12/14 13:11:20;;;;;;;21.80;13.65;;;;;;;;;;4974489;28;20617;-75
2023/12/14 13:13:46;;;;;;;20.83;13.60;;;;;;;;;;4975427;28;20042;-75
2023/12/14 13:16:14;;;;;;;24.45;14.13;;;;;;;;;;4974409;28;20125;-75
2023/12/14 13:18:40;;;;;;;24.70;14.00;;;;;;;;;;4972843;28;20083;-75
2023/12/14 13:21:06;;;;;;;22.95;14.43;;;;;;;;;;4974242;28;20058;-76
2023/12/14 13:23:33;;;;;;;26.05;14.18;;;;;;;;;;4969204;28;20130;-75
2023/12/14 13:25:59;;;;;;;24.15;12.55;;;;;;;;;;4971605;28;20543;-75
2023/12/14 13:28:25;;;;;;;28.75;13.75;;;;;;;;;;4974075;28;20057;-76
2023/12/14 13:30:51;;;;;;;20.23;13.40;;;;;;;;;;4975667;28;20052;-75
2023/12/14 13:33:17;;;;;;;22.40;13.95;;;;;;;;;;4976811;28;20069;-75
2023/12/14 13:35:43;;;;;;;22.85;12.80;;;;;;;;;;4979150;28;20587;-75
2023/12/14 13:38:09;;;;;;;18.48;12.10;;;;;;;;;;4979370;28;20047;-75
2023/12/14 13:40:35;;;;;;;23.38;13.57;;;;;;;;;;4960733;28;20485;-75
2023/12/14 13:43:09;;;;;;;22.17;12.93;;;;;;;;;;4962272;28;20405;-75
2023/12/14 13:45:35;;;;;;;24.13;14.95;;;;;;;;;;4977933;28;20042;-76
2023/12/14 13:48:01;;;;;;;25.98;14.15;;;;;;;;;;4979282;28;20053;-75
2023/12/14 13:50:28;;;;;;;21.77;14.90;;;;;;;;;;4964456;28;20055;-75
2023/12/14 13:52:54;;;;;;;24.27;16.50;;;;;;;;;;4976225;28;20121;-75
2023/12/14 13:55:22;;;;;;;27.98;19.25;;;;;;;;;;4977449;28;20047;-76
2023/12/14 13:57:48;;;;;;;30.27;21.63;;;;;;;;;;4976412;28;20046;-75
2023/12/14 14:00:16;;;;;;;26.48;20.17;;;;;;;;;;4973276;28;20047;-75
2023/12/14 14:02:42;;;;;;;28.42;18.05;;;;;;;;;;4991742;28;20053;-76
2023/12/14 14:05:08;;;;;;;26.55;16.00;;;;;;;;;;4969574;28;20061;-77
2023/12/14 14:07:34;;;;;;;21.08;14.73;;;;;;;;;;4976123;28;20039;-77
2023/12/14 14:10:00;;;;;;;24.70;14.57;;;;;;;;;;4976757;28;20058;-76
2023/12/14 14:12:26;;;;;;;22.92;14.65;;;;;;;;;;4976211;28;20053;-76
2023/12/14 14:14:52;;;;;;;21.00;14.48;;;;;;;;;;4964872;28;20061;-76
2023/12/14 14:17:18;;;;;;;22.00;14.73;;;;;;;;;;4969038;28;20066;-76